Clarksburg, New Jersey
Current Conditions -  °F | °C
As of 12:58 AM on Wednesday 28 Jan 2015 (Local Time) from KWRI Reporting Station
Clear Clear  
Wind Chill:   Ceiling: Unl
Heat Index: 18°   Visibility: 10mi
Dew Point:   Wind: 13mph
Humidity: 62%   Direction: 300°WNW
Pressure: 29.87"   Gusts: NA
Location:  40.19°N, 74.44°W
Report Text: KWRI 280558Z AUTO 30011KT 10SM CLR M08/M14 A2987 RMK AO2 SLP120 T10801142 11023 21081 52018 $
Loading
Personal Weather Stations






























Interactive Weather Map New forecast layout! Learn more

10-Day Weather Forecast

Advertisements
Track Severe Weather on mobile